Destinations Aberdeen Dyce Airport

Aberdeen Dyce Airport (EGPD / ABZ)

Flights to Aberdeen Dyce Airport

Flight number From ETE Dispatch
SPY-202 EHGG Groningen Airport Eelde 01:50

Flights from Aberdeen Dyce Airport

Flight number To ETE Dispatch
SPY-203 EHGG Groningen Airport Eelde
About

Aberdeen Dyce Airport facts

Aberdeen Dyce Airport is located in Aberdeen at an elevation of 65.5 meters or 215 feet.

Currently, Speedy Airlines serves 2 flights to and from Aberdeen Dyce Airport.

Detailed airport info

Route map

Weather

Current weather

METAR

METAR

Metar data retrieved Sunday, 21 July 2024 at 18:55 UTC

EGPD 211820Z AUTO 34002KT 9999 NCD 17/11 Q1008 NOSIG
Wind Temperature
2 kt 17c